createdAt,value
2022-11-05T00:00:01.599Z,7.23
2022-11-05T00:15:02.296Z,7.17
2022-11-05T00:30:01.985Z,6.96
2022-11-05T00:45:01.692Z,6.74
2022-11-05T01:00:02.339Z,6.4
2022-11-05T01:15:02.054Z,6.48
2022-11-05T01:30:01.736Z,6.3
2022-11-05T01:45:02.383Z,6.14
2022-11-05T02:00:02.013Z,5.91
2022-11-05T02:15:01.689Z,5.77
2022-11-05T02:30:02.402Z,5.59
2022-11-05T02:45:02.025Z,5.5
2022-11-05T03:00:01.685Z,5.42
2022-11-05T03:15:02.369Z,5.31
2022-11-05T03:30:02.103Z,5.26
2022-11-05T03:45:01.814Z,5.17
2022-11-05T04:00:02.472Z,5.02
2022-11-05T04:15:02.084Z,4.93
2022-11-05T04:30:01.743Z,4.76
2022-11-05T04:45:02.397Z,4.59
2022-11-05T05:00:02.037Z,4.52
2022-11-05T05:15:01.690Z,4.39
2022-11-05T05:30:01.887Z,4.34
2022-11-05T05:45:02.559Z,4.26
2022-11-05T06:00:02.172Z,4.15
2022-11-05T06:15:01.825Z,4.02
2022-11-05T06:30:02.522Z,4
2022-11-05T06:45:02.185Z,3.97
2022-11-05T07:00:07.333Z,3.95
2022-11-05T07:15:01.655Z,3.88
2022-11-05T07:30:02.305Z,3.8
2022-11-05T07:45:01.998Z,3.81
2022-11-05T08:00:01.661Z,3.87
2022-11-05T08:15:02.330Z,3.99
2022-11-05T08:30:02.017Z,4.19
2022-11-05T08:45:01.703Z,4.46
2022-11-05T09:00:02.361Z,4.82
2022-11-05T09:15:02.031Z,5.35
2022-11-05T09:30:01.726Z,5.87
2022-11-05T09:45:02.380Z,6.39
2022-11-05T10:00:02.042Z,6.95
2022-11-05T10:15:01.714Z,7.44
2022-11-05T10:30:02.383Z,7.94
2022-11-05T10:45:02.087Z,8.39
2022-11-05T11:00:01.756Z,8.92
2022-11-05T11:15:02.406Z,9.34
2022-11-05T11:30:02.096Z,9.97
2022-11-05T11:45:01.788Z,10.27
2022-11-05T12:00:08.770Z,10.6
2022-11-05T12:15:02.184Z,10.98
2022-11-05T12:30:01.943Z,11.31
2022-11-05T12:45:01.678Z,11.47
2022-11-05T13:00:02.346Z,11.64
2022-11-05T13:15:01.985Z,11.69
2022-11-05T13:30:01.697Z,11.85
2022-11-05T13:45:02.297Z,11.73
2022-11-05T14:00:01.996Z,11.68
2022-11-05T14:15:01.756Z,11.66
2022-11-05T14:30:02.498Z,11.68
2022-11-05T14:45:02.143Z,11.6
2022-11-05T15:00:01.977Z,11.54
2022-11-05T15:15:01.790Z,11.47
2022-11-05T15:30:02.441Z,11.36
2022-11-05T15:45:02.134Z,11.25
2022-11-05T16:00:01.919Z,11.19
2022-11-05T16:15:01.564Z,11.03
2022-11-05T16:30:02.233Z,10.95
2022-11-05T16:45:01.900Z,10.84
2022-11-05T17:00:02.567Z,10.75
2022-11-05T17:15:02.215Z,10.64
2022-11-05T17:30:01.909Z,10.53
2022-11-05T17:45:02.553Z,10.52
2022-11-05T18:00:02.245Z,10.47
2022-11-05T18:15:01.918Z,10.4
2022-11-05T18:30:01.639Z,10.38
2022-11-05T18:45:02.290Z,10.34
2022-11-05T19:00:01.938Z,10.28
2022-11-05T19:15:02.951Z,10.18
2022-11-05T19:30:01.928Z,10.18
2022-11-05T19:45:23.038Z,10.19
2022-11-05T20:00:02.516Z,10.18
2022-11-05T20:15:02.217Z,10.17
2022-11-05T20:30:01.873Z,10.21
2022-11-05T20:45:02.536Z,10.09
2022-11-05T21:00:02.179Z,10.12
2022-11-05T21:15:01.868Z,10.12
2022-11-05T21:30:02.514Z,10.05
2022-11-05T21:45:02.196Z,10.05
2022-11-05T22:00:01.884Z,10.07
2022-11-05T22:15:02.552Z,10.01
2022-11-05T22:30:02.246Z,10.01
2022-11-05T22:45:01.956Z,10.1
2022-11-05T23:00:01.755Z,10.04
2022-11-05T23:15:02.400Z,10.05
2022-11-05T23:30:02.059Z,10.06
2022-11-05T23:45:01.675Z,10.04
